Jamestown Regional Airport
KJMS : now visible

Airfield :











YOU CAN JOIN US ON...

 
LOGIN :

Register | Disclaimer

   EN    FR    IT 

 









Legend :    VFR   Marginal VFR   IFR   Intensive IFR   Very Intensive IFR
Visi :
Ceiling :
>= 8 km
>= 3000ft
5 to 8 km
1000 to 3000 ft
1500m to 5 km
500 to 1000 ft
800 to 1500m
200 to 500 ft
< 800m
< 200 ft
Symbols :   Thunderstorms  Fog  Heavy snow  Heavy precipitations  Wind > 20 kt







- Airport Elevation : 1500 ft
- IATA code : JMS


KJMS - Jamestown Regional

CURRENT METAR :
  • 211556Z AUTO 04015G21KT 10SM CLR 13/07 A2994 RMK AO2 PK WND 07027/1518 SLP144 T01280072

EXPIRED METARs :
  • 211456Z AUTO 05012KT 10SM CLR 11/07 A2992 RMK AO2 SLP138 T01060072 51017
  • 211356Z AUTO 06010KT 10SM SCT110 09/07 A2991 RMK AO2 SLP134 T00890067

TAF KJMS
Valid from the 21 at 12:00 until the 22 at 12:00 UTC


211120Z 2112/2212 04011KT P6SM SCT070 BKN100
FM211600 04014G21KT P6SM SCT050 BKN100
FM220100 03008KT P6SM SCT090 BKN150
FM220600 01006KT P6SM SCT250
KZMP FIR / North America



MET'MAP, your aeronautical weather chart ! - Copyright ORBIFLY December 2007 - Disclaimer

ORBIFLY MET'MAP TEAM :

Programming & Development : Alexandra Zaïnal
Concept & Development : Baudouin d'Aumeries
Co-Development & Prog : Marc-Olivier Méhu
Technical & hardware support : Manuel Goepfert

Contact : metmap@orbifly.com




SOURCES & CREDITS :

   NOAA       Earth
Advisory